createdAt,value
2018-01-26T00:00:04.551Z,29.87
2018-01-26T00:02:33.513Z,28.23
2018-01-26T00:05:03.429Z,26.27
2018-01-26T00:07:33.707Z,30.13
2018-01-26T00:10:03.207Z,27.60
2018-01-26T00:12:32.672Z,29.00
2018-01-26T00:15:02.936Z,28.40
2018-01-26T00:17:32.470Z,28.43
2018-01-26T00:20:03.498Z,31.20
2018-01-26T00:22:32.996Z,26.43
2018-01-26T00:25:02.492Z,23.93
2018-01-26T00:27:32.368Z,27.37
2018-01-26T00:30:02.644Z,27.20
2018-01-26T00:32:32.512Z,34.70
2018-01-26T00:35:02.782Z,25.20
2018-01-26T00:37:32.330Z,27.80
2018-01-26T00:40:02.587Z,28.43
2018-01-26T00:42:31.816Z,29.63
2018-01-26T00:45:01.328Z,25.33
2018-01-26T00:47:30.832Z,40.23
2018-01-26T00:50:00.680Z,30.43
2018-01-26T00:52:30.955Z,31.07
2018-01-26T00:55:00.823Z,34.60
2018-01-26T00:57:31.099Z,33.47
2018-01-26T01:00:00.342Z,31.90
2018-01-26T01:02:30.597Z,31.33
2018-01-26T01:05:00.152Z,30.63
2018-01-26T01:07:29.646Z,32.10
2018-01-26T01:09:59.131Z,33.10
2018-01-26T01:12:28.994Z,41.10
2018-01-26T01:14:59.247Z,32.73
2018-01-26T01:17:28.756Z,34.43
2018-01-26T01:19:58.635Z,38.33
2018-01-26T01:22:28.902Z,33.37
2018-01-26T01:24:58.448Z,35.43
2018-01-26T01:27:27.940Z,31.87
2018-01-26T01:29:57.456Z,47.43
2018-01-26T01:32:27.284Z,40.57
2018-01-26T01:34:57.548Z,29.37
2018-01-26T01:37:27.097Z,26.33
2018-01-26T01:39:56.666Z,29.73
2018-01-26T01:42:27.199Z,25.30
2018-01-26T01:44:56.690Z,31.63
2018-01-26T01:47:27.288Z,28.57
2018-01-26T01:49:57.545Z,29.50
2018-01-26T01:52:27.422Z,29.73
2018-01-26T01:54:57.687Z,29.20
2018-01-26T01:57:27.253Z,36.00
2018-01-26T01:59:56.740Z,30.27
2018-01-26T02:02:26.224Z,38.73
2018-01-26T02:04:56.099Z,38.87
2018-01-26T02:07:26.971Z,43.70
2018-01-26T02:09:56.835Z,39.77
2018-01-26T02:12:26.319Z,29.37
2018-01-26T02:14:56.179Z,34.67
2018-01-26T02:17:25.669Z,29.27
2018-01-26T02:19:55.255Z,33.20
2018-01-26T02:22:25.095Z,35.40
2018-01-26T02:24:55.343Z,49.47
2018-01-26T02:27:25.247Z,46.97
2018-01-26T02:29:55.483Z,47.63
2018-01-26T02:32:25.355Z,47.57
2018-01-26T02:34:55.044Z,43.87
2018-01-26T02:37:24.544Z,46.30
2018-01-26T02:39:54.383Z,37.50
2018-01-26T02:42:23.871Z,37.90
2018-01-26T02:44:53.364Z,41.80
2018-01-26T02:47:23.212Z,37.73
2018-01-26T02:49:53.460Z,39.23
2018-01-26T02:52:22.952Z,39.73
2018-01-26T02:54:53.204Z,38.97
2018-01-26T02:57:22.742Z,37.97
2018-01-26T02:59:52.483Z,40.57
2018-01-26T03:02:22.752Z,40.53
2018-01-26T03:04:52.558Z,45.20
2018-01-26T03:07:22.043Z,33.90
2018-01-26T03:09:51.535Z,27.90
2018-01-26T03:12:21.135Z,44.30
2018-01-26T03:14:50.610Z,52.60
2018-01-26T03:17:20.103Z,64.53
2018-01-26T03:19:49.903Z,46.33
2018-01-26T03:22:19.419Z,42.53
2018-01-26T03:24:48.948Z,39.33
2018-01-26T03:27:18.787Z,48.93
2018-01-26T03:29:49.047Z,46.07
2018-01-26T03:32:18.913Z,33.33
2018-01-26T03:34:48.399Z,39.03
2018-01-26T03:37:17.878Z,33.30
2018-01-26T03:39:47.748Z,39.87
2018-01-26T03:42:18.277Z,45.53
2018-01-26T03:44:48.835Z,43.43
2018-01-26T03:47:18.326Z,39.83
2018-01-26T03:49:48.182Z,35.90
2018-01-26T03:52:19.016Z,39.50
2018-01-26T03:54:48.537Z,36.17
2018-01-26T03:57:18.038Z,43.43
2018-01-26T03:59:47.240Z,52.63
2018-01-26T04:02:17.076Z,43.53
2018-01-26T04:04:46.561Z,54.17
2018-01-26T04:07:16.058Z,56.50
2018-01-26T04:09:45.904Z,70.87
2018-01-26T04:12:16.152Z,82.23
2018-01-26T04:14:45.684Z,86.97
2018-01-26T04:17:15.551Z,93.60
2018-01-26T04:19:45.795Z,99.17
2018-01-26T04:22:15.366Z,111.70
2018-01-26T04:24:44.843Z,109.43
2018-01-26T04:27:14.346Z,111.97
2018-01-26T04:29:43.998Z,121.83
2018-01-26T04:32:14.251Z,127.73
2018-01-26T04:34:43.795Z,119.00
2018-01-26T04:37:13.377Z,123.40
2018-01-26T04:39:42.851Z,136.83
2018-01-26T04:42:12.647Z,123.63
2018-01-26T04:44:42.903Z,125.93
2018-01-26T04:47:12.457Z,123.57
2018-01-26T04:49:41.952Z,130.63
2018-01-26T04:52:11.460Z,139.40
2018-01-26T04:54:41.303Z,113.37
2018-01-26T04:57:11.552Z,122.83
2018-01-26T04:59:41.056Z,135.07
2018-01-26T05:02:10.553Z,128.50
2018-01-26T05:04:40.046Z,131.57
2018-01-26T05:07:10.678Z,136.20
2018-01-26T05:09:40.994Z,117.43
2018-01-26T05:12:10.631Z,117.07
2018-01-26T05:14:40.124Z,120.40
2018-01-26T05:17:10.751Z,126.73
2018-01-26T05:19:41.012Z,125.50
2018-01-26T05:22:10.914Z,145.80
2018-01-26T05:24:40.724Z,123.53
2018-01-26T05:27:10.215Z,123.97
2018-01-26T05:29:40.306Z,124.17
2018-01-26T05:32:09.811Z,132.47
2018-01-26T05:34:39.427Z,113.33
2018-01-26T05:37:10.060Z,109.27
2018-01-26T05:39:40.656Z,86.73
2018-01-26T05:42:10.960Z,94.80
2018-01-26T05:44:40.685Z,79.27
2018-01-26T05:47:10.251Z,73.60
2018-01-26T05:49:40.869Z,62.00
2018-01-26T05:52:11.127Z,48.10
2018-01-26T05:54:40.998Z,39.20
2018-01-26T05:57:10.487Z,40.77
2018-01-26T05:59:39.991Z,42.67
2018-01-26T06:02:09.491Z,43.97
2018-01-26T06:04:38.995Z,45.57
2018-01-26T06:07:08.656Z,47.83
2018-01-26T06:09:39.272Z,54.00
2018-01-26T06:12:09.532Z,54.03
2018-01-26T06:14:39.118Z,44.07
2018-01-26T06:17:08.454Z,53.97
2018-01-26T06:19:38.131Z,58.13
2018-01-26T06:22:07.448Z,57.40
2018-01-26T06:24:36.776Z,50.30
2018-01-26T06:27:06.080Z,46.00
2018-01-26T06:29:35.831Z,46.30
2018-01-26T06:32:06.083Z,40.57
2018-01-26T06:34:35.575Z,41.37
2018-01-26T06:37:06.310Z,46.03
2018-01-26T06:39:36.573Z,49.03
2018-01-26T06:42:06.079Z,42.00
2018-01-26T06:44:35.567Z,48.23
2018-01-26T06:47:05.055Z,43.83
2018-01-26T06:49:35.307Z,45.57
2018-01-26T06:52:04.804Z,51.67
2018-01-26T06:54:34.295Z,46.77
2018-01-26T06:57:03.780Z,50.10
2018-01-26T06:59:33.283Z,46.00
2018-01-26T07:02:02.747Z,44.47
2018-01-26T07:04:32.634Z,36.27
2018-01-26T07:07:02.910Z,45.03
2018-01-26T07:09:33.941Z,58.70
2018-01-26T07:12:03.467Z,61.33
2018-01-26T07:14:33.414Z,60.60
2018-01-26T07:17:03.655Z,63.80
2018-01-26T07:19:34.203Z,167.05
2018-01-26T07:22:03.700Z,17.60
2018-01-26T07:24:33.256Z,12.37
2018-01-26T07:27:02.756Z,11.03
2018-01-26T07:29:32.239Z,17.67
2018-01-26T07:32:02.247Z,15.43
2018-01-26T07:34:31.707Z,16.73
2018-01-26T07:37:01.989Z,25.57
2018-01-26T07:39:31.716Z,41.33
2018-01-26T07:42:01.222Z,69.93
2018-01-26T07:44:31.068Z,57.70
2018-01-26T07:47:01.313Z,62.37
2018-01-26T07:49:30.608Z,39.10
2018-01-26T07:52:00.159Z,37.17
2018-01-26T07:54:29.659Z,35.23
2018-01-26T07:56:59.615Z,50.87
2018-01-26T07:59:29.855Z,41.40
2018-01-26T08:01:59.405Z,61.10
2018-01-26T08:04:29.275Z,44.43
2018-01-26T08:06:58.652Z,54.27
2018-01-26T08:09:27.955Z,55.87
2018-01-26T08:11:58.337Z,48.83
2018-01-26T08:14:27.846Z,46.93
2018-01-26T08:16:57.380Z,49.57
2018-01-26T08:19:27.366Z,43.43
2018-01-26T08:21:57.651Z,34.80
2018-01-26T08:24:27.959Z,36.90
2018-01-26T08:26:58.963Z,34.97
2018-01-26T08:29:28.448Z,37.77
2018-01-26T08:31:57.927Z,36.30
2018-01-26T08:34:28.447Z,29.93
2018-01-26T08:36:58.692Z,30.20
2018-01-26T08:39:28.194Z,30.93
2018-01-26T08:41:58.645Z,25.67
2018-01-26T08:44:29.131Z,41.87
2018-01-26T08:46:58.644Z,44.37
2018-01-26T08:49:28.150Z,37.30
2018-01-26T08:51:57.628Z,26.90
2018-01-26T08:54:27.206Z,28.53
2018-01-26T08:56:56.835Z,30.97
2018-01-26T08:59:26.328Z,28.80
2018-01-26T09:01:55.673Z,27.80
2018-01-26T09:04:25.692Z,28.47
2018-01-26T09:06:55.283Z,21.97
2018-01-26T09:09:24.811Z,23.93
2018-01-26T09:11:55.079Z,23.60
2018-01-26T09:14:24.578Z,21.60
2018-01-26T09:16:54.100Z,23.30
2018-01-26T09:19:23.624Z,19.50
2018-01-26T09:21:53.210Z,18.47
2018-01-26T09:24:22.849Z,18.60
2018-01-26T09:26:53.406Z,18.23
2018-01-26T09:29:23.065Z,21.80
2018-01-26T09:31:52.569Z,23.07
2018-01-26T09:34:22.086Z,21.27
2018-01-26T09:36:51.680Z,26.67
2018-01-26T09:39:21.493Z,22.30
2018-01-26T09:41:50.978Z,23.80
2018-01-26T09:44:20.495Z,22.40
2018-01-26T09:46:50.043Z,21.43
2018-01-26T09:49:19.544Z,20.20
2018-01-26T09:51:49.034Z,21.80
2018-01-26T09:54:18.528Z,22.03
2018-01-26T09:56:48.059Z,22.60
2018-01-26T09:59:17.552Z,19.90
2018-01-26T10:01:47.195Z,20.17
2018-01-26T10:04:17.445Z,22.43
2018-01-26T10:06:47.008Z,26.53
2018-01-26T10:09:16.525Z,25.60
2018-01-26T10:11:46.010Z,26.10
2018-01-26T10:14:15.764Z,31.37
2018-01-26T10:16:45.255Z,34.80
2018-01-26T10:19:15.517Z,37.03
2018-01-26T10:21:45.068Z,35.67
2018-01-26T10:24:14.564Z,41.00
2018-01-26T10:26:44.167Z,43.30
2018-01-26T10:29:13.651Z,47.53
2018-01-26T10:31:43.205Z,55.53
2018-01-26T10:34:14.209Z,44.63
2018-01-26T10:36:43.752Z,37.60
2018-01-26T10:39:13.244Z,44.00
2018-01-26T10:41:42.735Z,41.47
2018-01-26T10:44:12.223Z,40.27
2018-01-26T10:46:41.771Z,35.47
2018-01-26T10:49:12.784Z,34.43
2018-01-26T10:51:42.279Z,38.50
2018-01-26T10:54:11.777Z,37.73
2018-01-26T10:56:41.264Z,33.43
2018-01-26T10:59:10.790Z,44.67
2018-01-26T11:01:40.343Z,38.50
2018-01-26T11:04:09.848Z,40.50
2018-01-26T11:06:39.468Z,31.07
2018-01-26T11:09:09.059Z,40.73
2018-01-26T11:11:38.579Z,33.47
2018-01-26T11:14:09.577Z,40.67
2018-01-26T11:16:39.396Z,31.13
2018-01-26T11:19:09.623Z,44.73
2018-01-26T11:21:39.116Z,37.23
2018-01-26T11:24:08.610Z,40.37
2018-01-26T11:26:38.092Z,37.40
2018-01-26T11:29:08.010Z,41.07
2018-01-26T11:31:37.520Z,36.63
2018-01-26T11:34:07.092Z,42.30
2018-01-26T11:36:36.602Z,38.90
2018-01-26T11:39:06.135Z,41.63
2018-01-26T11:41:35.978Z,40.60
2018-01-26T11:44:06.232Z,42.13
2018-01-26T11:46:35.838Z,38.40
2018-01-26T11:49:05.160Z,35.50
2018-01-26T11:51:34.644Z,36.70
2018-01-26T11:54:04.224Z,35.43
2018-01-26T11:56:34.488Z,35.70
2018-01-26T11:59:04.015Z,37.37
2018-01-26T12:01:34.301Z,38.20
2018-01-26T12:04:03.521Z,33.93
2018-01-26T12:06:33.019Z,36.43
2018-01-26T12:09:02.555Z,37.40
2018-01-26T12:11:32.542Z,36.23
2018-01-26T12:14:02.031Z,35.60
2018-01-26T12:16:31.582Z,30.70
2018-01-26T12:19:00.904Z,32.40
2018-01-26T12:21:31.347Z,35.37
2018-01-26T12:24:00.660Z,31.63
2018-01-26T12:26:30.144Z,29.07
2018-01-26T12:28:59.754Z,32.13
2018-01-26T12:31:29.814Z,35.43
2018-01-26T12:33:58.959Z,29.07
2018-01-26T12:36:29.244Z,28.30
2018-01-26T12:38:58.768Z,34.47
2018-01-26T12:41:27.952Z,29.80
2018-01-26T12:43:57.568Z,33.27
2018-01-26T12:46:27.329Z,34.87
2018-01-26T12:48:57.631Z,30.83
2018-01-26T12:51:27.142Z,31.47
2018-01-26T12:53:57.256Z,29.80
2018-01-26T12:56:27.715Z,31.30
2018-01-26T12:58:57.403Z,26.47
2018-01-26T13:01:27.691Z,29.70
2018-01-26T13:03:57.189Z,34.10
2018-01-26T13:06:26.050Z,32.17
2018-01-26T13:08:55.837Z,32.97
2018-01-26T13:11:26.097Z,30.47
2018-01-26T13:13:55.589Z,36.07
2018-01-26T13:16:25.087Z,34.60
2018-01-26T13:18:54.625Z,33.93
2018-01-26T13:21:24.418Z,29.13
2018-01-26T13:23:53.617Z,29.17
2018-01-26T13:26:23.099Z,36.90
2018-01-26T13:28:52.927Z,35.40
2018-01-26T13:31:23.150Z,34.37
2018-01-26T13:33:52.799Z,39.17
2018-01-26T13:36:22.380Z,27.77
2018-01-26T13:38:52.630Z,32.23
2018-01-26T13:41:22.208Z,37.03
2018-01-26T13:43:52.534Z,40.70
2018-01-26T13:46:22.771Z,33.80
2018-01-26T13:48:52.303Z,39.87
2018-01-26T13:51:21.812Z,40.53
2018-01-26T13:53:51.302Z,39.27
2018-01-26T13:56:20.628Z,38.00
2018-01-26T13:58:50.689Z,34.80
2018-01-26T14:01:19.866Z,35.77
2018-01-26T14:03:50.115Z,33.67
2018-01-26T14:06:19.662Z,34.30
2018-01-26T14:08:49.168Z,33.73
2018-01-26T14:11:18.659Z,35.37
2018-01-26T14:13:48.832Z,32.03
2018-01-26T14:16:18.402Z,31.10
2018-01-26T14:18:47.569Z,35.97
2018-01-26T14:21:17.223Z,34.57
2018-01-26T14:23:46.749Z,39.77
2018-01-26T14:26:16.244Z,32.10
2018-01-26T14:28:46.514Z,35.73
2018-01-26T14:31:17.548Z,35.90
2018-01-26T14:33:47.526Z,34.20
2018-01-26T14:36:17.786Z,34.33
2018-01-26T14:38:47.520Z,35.40
2018-01-26T14:41:17.012Z,33.40
2018-01-26T14:43:46.508Z,41.73
2018-01-26T14:46:16.377Z,38.87
2018-01-26T14:48:45.592Z,47.70
2018-01-26T14:51:16.202Z,38.33
2018-01-26T14:53:46.506Z,47.30
2018-01-26T14:56:15.847Z,39.73
2018-01-26T14:58:45.044Z,36.70
2018-01-26T15:01:15.531Z,34.87
2018-01-26T15:03:45.059Z,30.17
2018-01-26T15:06:15.312Z,29.53
2018-01-26T15:08:44.530Z,34.33
2018-01-26T15:11:14.994Z,36.20
2018-01-26T15:13:44.492Z,36.93
2018-01-26T15:16:13.997Z,34.77
2018-01-26T15:18:43.521Z,37.20
2018-01-26T15:21:13.092Z,32.53
2018-01-26T15:23:42.584Z,34.77
2018-01-26T15:26:12.453Z,38.07
2018-01-26T15:28:42.511Z,32.17
2018-01-26T15:31:12.031Z,37.70
2018-01-26T15:33:43.091Z,34.73
2018-01-26T15:36:12.899Z,39.93
2018-01-26T15:38:42.422Z,40.93
2018-01-26T15:41:12.281Z,35.53
2018-01-26T15:43:41.855Z,33.07
2018-01-26T15:46:11.337Z,38.67
2018-01-26T15:48:41.172Z,37.60
2018-01-26T15:51:11.485Z,35.17
2018-01-26T15:53:42.389Z,36.03
2018-01-26T15:56:11.615Z,34.23
2018-01-26T15:58:41.243Z,37.80
2018-01-26T16:01:11.206Z,36.73
2018-01-26T16:03:40.356Z,38.03
2018-01-26T16:06:09.667Z,41.70
2018-01-26T16:08:39.072Z,42.03
2018-01-26T16:11:09.331Z,43.27
2018-01-26T16:13:39.215Z,37.33
2018-01-26T16:16:08.710Z,45.47
2018-01-26T16:18:39.009Z,47.23
2018-01-26T16:21:08.512Z,40.80
2018-01-26T16:23:38.177Z,48.90
2018-01-26T16:26:08.165Z,41.20
2018-01-26T16:28:37.717Z,37.17
2018-01-26T16:31:07.386Z,39.63
2018-01-26T16:33:37.663Z,39.43
2018-01-26T16:36:07.152Z,45.60
2018-01-26T16:38:36.636Z,36.87
2018-01-26T16:41:06.203Z,40.20
2018-01-26T16:43:35.750Z,38.83
2018-01-26T16:46:05.317Z,41.07
2018-01-26T16:48:36.608Z,42.80
2018-01-26T16:51:05.883Z,43.40
2018-01-26T16:53:36.143Z,35.73
2018-01-26T16:56:05.731Z,44.17
2018-01-26T16:58:36.010Z,42.87
2018-01-26T17:01:05.651Z,38.87
2018-01-26T17:03:36.205Z,37.47
2018-01-26T17:06:05.688Z,39.90
2018-01-26T17:08:35.183Z,39.80
2018-01-26T17:11:05.438Z,43.23
2018-01-26T17:13:34.935Z,41.73
2018-01-26T17:16:04.444Z,41.53
2018-01-26T17:18:33.627Z,42.87
2018-01-26T17:21:03.881Z,43.37
2018-01-26T17:23:33.439Z,45.43
2018-01-26T17:26:02.920Z,48.00
2018-01-26T17:28:32.425Z,42.03
2018-01-26T17:31:01.608Z,48.83
2018-01-26T17:33:39.581Z,48.87
2018-01-26T17:36:20.870Z,44.60
2018-01-26T17:38:51.616Z,48.47
2018-01-26T17:41:21.499Z,55.27
2018-01-26T17:43:50.713Z,57.70
2018-01-26T17:46:20.260Z,51.50
2018-01-26T17:48:49.895Z,56.73
2018-01-26T17:51:20.157Z,63.53
2018-01-26T17:53:49.655Z,59.33
2018-01-26T17:56:18.893Z,63.37
2018-01-26T17:58:48.388Z,55.43
2018-01-26T18:01:19.133Z,55.10
2018-01-26T18:03:48.297Z,64.20
2018-01-26T18:06:17.520Z,56.03
2018-01-26T18:08:47.003Z,66.03
2018-01-26T18:11:16.487Z,56.90
2018-01-26T18:13:45.804Z,60.40
2018-01-26T18:16:15.131Z,62.03
2018-01-26T18:18:44.611Z,55.57
2018-01-26T18:21:13.932Z,56.73
2018-01-26T18:23:43.696Z,56.17
2018-01-26T18:26:13.947Z,50.73
2018-01-26T18:28:43.468Z,55.37
2018-01-26T18:31:12.928Z,59.23
2018-01-26T18:33:42.091Z,49.73
2018-01-26T18:36:11.935Z,55.57
2018-01-26T18:38:42.199Z,56.13
2018-01-26T18:41:11.697Z,62.43
2018-01-26T18:43:41.848Z,61.30
2018-01-26T18:46:11.502Z,62.30
2018-01-26T18:48:41.414Z,65.17
2018-01-26T18:51:11.672Z,65.60
2018-01-26T18:53:41.184Z,67.27
2018-01-26T18:56:10.707Z,72.90
2018-01-26T18:58:40.215Z,66.77
2018-01-26T19:01:10.689Z,62.43
2018-01-26T19:03:40.168Z,57.07
2018-01-26T19:06:09.678Z,68.87
2018-01-26T19:08:39.183Z,62.97
2018-01-26T19:11:08.687Z,59.97
2018-01-26T19:13:38.178Z,62.97
2018-01-26T19:16:08.032Z,56.07
2018-01-26T19:18:37.524Z,69.00
2018-01-26T19:21:07.801Z,66.07
2018-01-26T19:23:37.297Z,55.83
2018-01-26T19:26:06.789Z,59.30
2018-01-26T19:28:35.626Z,67.80
2018-01-26T19:31:05.396Z,62.27
2018-01-26T19:33:35.043Z,64.97
2018-01-26T19:36:04.530Z,62.53
2018-01-26T19:38:33.826Z,60.63
2018-01-26T19:41:03.320Z,61.53
2018-01-26T19:43:32.825Z,57.27
2018-01-26T19:46:02.339Z,62.73
2018-01-26T19:48:31.874Z,62.57
2018-01-26T19:51:01.377Z,61.47
2018-01-26T19:53:30.896Z,65.37
2018-01-26T19:56:00.395Z,66.10
2018-01-26T19:58:29.885Z,70.40
2018-01-26T20:00:59.398Z,70.50
2018-01-26T20:03:31.753Z,71.60
2018-01-26T20:06:05.981Z,74.03
2018-01-26T20:08:40.647Z,77.73
2018-01-26T20:11:11.277Z,79.93
2018-01-26T20:13:41.524Z,77.50
2018-01-26T20:16:11.078Z,74.73
2018-01-26T20:18:40.568Z,92.77
2018-01-26T20:21:10.063Z,81.37
2018-01-26T20:23:39.548Z,77.57
2018-01-26T20:26:09.127Z,77.67
2018-01-26T20:28:39.773Z,74.07
2018-01-26T20:31:09.260Z,77.33
2018-01-26T20:33:39.353Z,71.03
2018-01-26T20:36:08.861Z,86.97
2018-01-26T20:38:38.468Z,79.83
2018-01-26T20:41:07.974Z,75.43
2018-01-26T20:43:37.461Z,67.60
2018-01-26T20:46:07.078Z,73.17
2018-01-26T20:48:36.297Z,74.10
2018-01-26T20:51:05.497Z,72.47
2018-01-26T20:53:35.766Z,80.37
2018-01-26T20:56:04.984Z,75.30
2018-01-26T20:58:34.494Z,75.20
2018-01-26T21:01:03.998Z,79.10
2018-01-26T21:03:33.523Z,83.90
2018-01-26T21:06:04.530Z,75.73
2018-01-26T21:08:34.039Z,69.90
2018-01-26T21:11:03.534Z,73.87
2018-01-26T21:13:33.040Z,71.07
2018-01-26T21:16:03.183Z,77.87
2018-01-26T21:18:32.669Z,74.77
2018-01-26T21:21:02.280Z,71.83
2018-01-26T21:23:31.756Z,72.73
2018-01-26T21:26:02.283Z,73.13
2018-01-26T21:28:32.575Z,73.03
2018-01-26T21:31:02.226Z,68.30
2018-01-26T21:33:31.721Z,76.40
2018-01-26T21:36:01.997Z,79.83
2018-01-26T21:38:31.502Z,83.03
2018-01-26T21:41:02.920Z,84.60
2018-01-26T21:43:32.405Z,69.57
2018-01-26T21:46:02.082Z,82.13
2018-01-26T21:48:32.643Z,81.77
2018-01-26T21:51:02.906Z,79.80
2018-01-26T21:53:32.404Z,84.30
2018-01-26T21:56:01.945Z,85.90
2018-01-26T21:58:32.611Z,85.27
2018-01-26T22:01:02.862Z,75.63
2018-01-26T22:03:32.387Z,83.00
2018-01-26T22:06:07.307Z,80.27
2018-01-26T22:08:37.076Z,83.03
2018-01-26T22:11:06.569Z,85.27
2018-01-26T22:13:36.052Z,79.03
2018-01-26T22:16:05.932Z,89.23
2018-01-26T22:18:36.198Z,84.40
2018-01-26T22:21:05.671Z,75.80
2018-01-26T22:23:35.264Z,78.33
2018-01-26T22:26:04.812Z,82.30
2018-01-26T22:28:33.981Z,78.40
2018-01-26T22:31:03.513Z,78.23
2018-01-26T22:33:33.009Z,76.43
2018-01-26T22:36:02.529Z,76.57
2018-01-26T22:38:31.693Z,88.27
2018-01-26T22:41:01.378Z,74.70
2018-01-26T22:43:31.230Z,78.10
2018-01-26T22:46:00.996Z,85.00
2018-01-26T22:48:31.630Z,75.50
2018-01-26T22:51:01.885Z,71.50
2018-01-26T22:53:31.384Z,79.53
2018-01-26T22:56:00.907Z,80.03
2018-01-26T22:58:30.486Z,77.33
2018-01-26T23:01:01.062Z,87.13
2018-01-26T23:03:30.527Z,80.07
2018-01-26T23:06:00.813Z,74.20
2018-01-26T23:08:30.285Z,81.50
2018-01-26T23:10:59.487Z,85.53
2018-01-26T23:13:28.970Z,89.23
2018-01-26T23:15:58.503Z,77.93
2018-01-26T23:18:27.971Z,73.93
2018-01-26T23:20:58.513Z,75.90
2018-01-26T23:23:28.746Z,75.23
2018-01-26T23:25:58.527Z,85.67
2018-01-26T23:28:28.776Z,91.33
2018-01-26T23:30:58.349Z,99.43
2018-01-26T23:33:26.907Z,84.70
2018-01-26T23:35:56.393Z,85.90
2018-01-26T23:38:25.538Z,81.43
2018-01-26T23:40:55.786Z,99.33
2018-01-26T23:43:25.687Z,97.57
2018-01-26T23:45:55.931Z,98.10
2018-01-26T23:48:25.500Z,96.80
2018-01-26T23:50:55.514Z,101.10
2018-01-26T23:53:25.023Z,100.97
2018-01-26T23:55:54.515Z,95.67
2018-01-26T23:58:24.037Z,98.73
